createdAt,value
2018-12-19T00:00:45.380Z,38.10
2018-12-19T00:01:45.370Z,38.20
2018-12-19T00:02:45.361Z,37.80
2018-12-19T00:03:45.353Z,40.00
2018-12-19T00:04:45.354Z,38.20
2018-12-19T00:05:45.329Z,39.50
2018-12-19T00:06:45.327Z,39.00
2018-12-19T00:07:45.307Z,37.60
2018-12-19T00:08:45.304Z,38.00
2018-12-19T00:09:45.297Z,38.10
2018-12-19T00:10:45.279Z,40.30
2018-12-19T00:11:45.268Z,39.80
2018-12-19T00:12:45.254Z,38.40
2018-12-19T00:13:45.246Z,40.10
2018-12-19T00:14:45.256Z,39.90
2018-12-19T00:15:45.224Z,37.70
2018-12-19T00:16:45.215Z,38.70
2018-12-19T00:17:45.207Z,38.90
2018-12-19T00:18:45.190Z,38.60
2018-12-19T00:19:45.192Z,38.70
2018-12-19T00:20:45.171Z,37.60
2018-12-19T00:21:45.163Z,36.80
2018-12-19T00:22:45.150Z,35.60
2018-12-19T00:23:45.141Z,37.70
2018-12-19T00:24:45.137Z,35.00
2018-12-19T00:25:45.120Z,35.50
2018-12-19T00:26:45.109Z,36.00
2018-12-19T00:27:45.098Z,36.50
2018-12-19T00:28:45.088Z,36.80
2018-12-19T00:29:45.090Z,35.90
2018-12-19T00:30:45.066Z,36.40
2018-12-19T00:31:45.058Z,36.10
2018-12-19T00:32:45.047Z,36.90
2018-12-19T00:33:45.034Z,34.80
2018-12-19T00:34:45.037Z,34.80
2018-12-19T00:35:45.011Z,35.50
2018-12-19T00:36:45.001Z,35.30
2018-12-19T00:37:44.994Z,35.10
2018-12-19T00:38:44.981Z,34.20
2018-12-19T00:39:44.981Z,34.30
2018-12-19T00:40:44.960Z,35.40
2018-12-19T00:41:44.951Z,34.40
2018-12-19T00:42:44.940Z,34.50
2018-12-19T00:43:44.930Z,35.60
2018-12-19T00:44:44.947Z,35.60
2018-12-19T00:45:44.908Z,34.40
2018-12-19T00:46:44.899Z,34.50
2018-12-19T00:47:44.892Z,34.50
2018-12-19T00:48:44.880Z,33.50
2018-12-19T00:49:46.173Z,34.60
2018-12-19T00:50:44.858Z,33.40
2018-12-19T00:51:44.847Z,33.40
2018-12-19T00:52:44.841Z,33.50
2018-12-19T00:53:44.834Z,33.50
2018-12-19T00:54:44.829Z,33.50
2018-12-19T00:55:44.804Z,34.30
2018-12-19T00:56:44.795Z,34.20
2018-12-19T00:57:44.788Z,32.90
2018-12-19T00:58:44.781Z,33.00
2018-12-19T00:59:44.782Z,33.40
2018-12-19T01:00:44.756Z,32.40
2018-12-19T01:01:44.747Z,32.50
2018-12-19T01:02:44.734Z,32.10
2018-12-19T01:03:44.721Z,32.80
2018-12-19T01:04:48.116Z,32.60
2018-12-19T01:05:44.704Z,33.70
2018-12-19T01:06:44.694Z,34.00
2018-12-19T01:07:44.678Z,31.70
2018-12-19T01:08:44.670Z,32.70
2018-12-19T01:09:44.671Z,31.80
2018-12-19T01:10:44.648Z,32.00
2018-12-19T01:11:44.639Z,32.00
2018-12-19T01:12:44.627Z,32.10
2018-12-19T01:13:44.624Z,32.90
2018-12-19T01:14:44.616Z,32.20
2018-12-19T01:15:44.601Z,31.90
2018-12-19T01:16:44.587Z,31.10
2018-12-19T01:17:44.576Z,31.70
2018-12-19T01:18:44.586Z,32.10
2018-12-19T01:19:44.576Z,31.80
2018-12-19T01:20:44.543Z,33.20
2018-12-19T01:21:44.536Z,32.80
2018-12-19T01:22:44.524Z,32.80
2018-12-19T01:23:44.512Z,32.50
2018-12-19T01:24:44.535Z,32.70
2018-12-19T01:25:44.491Z,31.80
2018-12-19T01:26:44.487Z,30.90
2018-12-19T01:27:44.471Z,31.00
2018-12-19T01:28:44.461Z,31.70
2018-12-19T01:29:44.452Z,32.00
2018-12-19T01:30:44.453Z,32.80
2018-12-19T01:31:44.437Z,31.10
2018-12-19T01:32:44.419Z,32.60
2018-12-19T01:33:44.411Z,32.20
2018-12-19T01:34:44.398Z,33.10
2018-12-19T01:35:44.398Z,33.50
2018-12-19T01:36:44.377Z,34.30
2018-12-19T01:37:44.379Z,34.00
2018-12-19T01:38:44.357Z,35.10
2018-12-19T01:39:44.346Z,35.80
2018-12-19T01:40:44.352Z,35.80
2018-12-19T01:41:44.324Z,36.00
2018-12-19T01:42:44.314Z,33.90
2018-12-19T01:43:44.307Z,33.20
2018-12-19T01:44:44.302Z,35.20
2018-12-19T01:45:44.294Z,34.00
2018-12-19T01:46:44.272Z,33.60
2018-12-19T01:47:44.262Z,34.70
2018-12-19T01:48:44.257Z,35.00
2018-12-19T01:49:44.248Z,35.50
2018-12-19T01:50:44.252Z,35.80
2018-12-19T01:51:44.248Z,34.90
2018-12-19T01:52:44.209Z,35.40
2018-12-19T01:53:44.202Z,35.50
2018-12-19T01:54:44.190Z,35.50
2018-12-19T01:55:44.212Z,35.10
2018-12-19T01:56:44.171Z,34.70
2018-12-19T01:57:44.158Z,34.40
2018-12-19T01:58:44.147Z,34.70
2018-12-19T01:59:44.137Z,34.30
2018-12-19T02:00:44.143Z,33.10
2018-12-19T02:01:44.119Z,33.50
2018-12-19T02:02:44.125Z,35.60
2018-12-19T02:03:44.095Z,33.00
2018-12-19T02:04:44.085Z,33.70
2018-12-19T02:05:44.086Z,34.80
2018-12-19T02:06:44.063Z,35.00
2018-12-19T02:07:44.052Z,35.20
2018-12-19T02:08:44.045Z,34.70
2018-12-19T02:09:44.041Z,34.30
2018-12-19T02:10:44.034Z,35.80
2018-12-19T02:11:44.010Z,36.50
2018-12-19T02:12:44.004Z,36.10
2018-12-19T02:13:43.992Z,35.40
2018-12-19T02:14:43.980Z,34.70
2018-12-19T02:15:43.981Z,32.70
2018-12-19T02:16:43.964Z,32.80
2018-12-19T02:17:43.950Z,36.30
2018-12-19T02:18:43.944Z,36.60
2018-12-19T02:19:43.926Z,36.20
2018-12-19T02:20:43.927Z,34.80
2018-12-19T02:21:43.906Z,34.60
2018-12-19T02:22:43.897Z,34.00
2018-12-19T02:23:43.892Z,33.70
2018-12-19T02:24:43.879Z,33.80
2018-12-19T02:25:43.893Z,34.50
2018-12-19T02:26:43.853Z,34.60
2018-12-19T02:27:43.842Z,32.50
2018-12-19T02:28:43.834Z,35.00
2018-12-19T02:29:43.824Z,34.50
2018-12-19T02:30:43.814Z,34.30
2018-12-19T02:31:43.842Z,34.00
2018-12-19T02:32:43.793Z,34.80
2018-12-19T02:33:43.838Z,34.60
2018-12-19T02:34:43.773Z,33.60
2018-12-19T02:35:43.759Z,34.60
2018-12-19T02:36:43.764Z,34.20
2018-12-19T02:37:43.741Z,34.30
2018-12-19T02:38:43.734Z,34.40
2018-12-19T02:39:43.721Z,33.70
2018-12-19T02:40:43.709Z,34.30
2018-12-19T02:41:43.710Z,33.90
2018-12-19T02:42:43.701Z,34.30
2018-12-19T02:43:43.678Z,32.80
2018-12-19T02:44:43.678Z,33.90
2018-12-19T02:45:43.656Z,33.30
2018-12-19T02:46:43.663Z,33.70
2018-12-19T02:47:43.665Z,34.50
2018-12-19T02:48:43.639Z,32.90
2018-12-19T02:49:43.612Z,33.70
2018-12-19T02:50:43.601Z,34.60
2018-12-19T02:51:43.603Z,34.40
2018-12-19T02:52:43.581Z,34.30
2018-12-19T02:53:43.572Z,34.80
2018-12-19T02:54:43.559Z,34.10
2018-12-19T02:55:43.551Z,33.70
2018-12-19T02:56:43.554Z,32.90
2018-12-19T02:57:43.528Z,33.30
2018-12-19T02:58:43.517Z,32.30
2018-12-19T02:59:43.511Z,32.60
2018-12-19T03:00:43.503Z,34.00
2018-12-19T03:01:43.505Z,34.00
2018-12-19T03:02:43.477Z,34.00
2018-12-19T03:03:43.466Z,32.60
2018-12-19T03:04:43.458Z,32.90
2018-12-19T03:05:43.448Z,33.10
2018-12-19T03:06:43.450Z,32.30
2018-12-19T03:07:43.427Z,33.30
2018-12-19T03:08:43.417Z,33.00
2018-12-19T03:09:43.404Z,34.20
2018-12-19T03:10:43.392Z,33.50
2018-12-19T03:11:43.394Z,32.80
2018-12-19T03:12:43.381Z,34.70
2018-12-19T03:13:43.363Z,33.10
2018-12-19T03:14:43.350Z,33.00
2018-12-19T03:15:43.338Z,31.80
2018-12-19T03:16:43.360Z,32.60
2018-12-19T03:17:43.324Z,33.90
2018-12-19T03:18:43.328Z,31.60
2018-12-19T03:19:43.304Z,33.00
2018-12-19T03:20:43.293Z,33.50
2018-12-19T03:21:43.279Z,33.20
2018-12-19T03:22:43.277Z,33.80
2018-12-19T03:23:43.263Z,32.50
2018-12-19T03:24:43.244Z,33.40
2018-12-19T03:25:43.234Z,32.00
2018-12-19T03:26:43.228Z,32.20
2018-12-19T03:27:43.228Z,32.20
2018-12-19T03:28:43.204Z,31.60
2018-12-19T03:29:43.195Z,32.20
2018-12-19T03:30:43.185Z,33.10
2018-12-19T03:31:43.176Z,31.00
2018-12-19T03:32:43.177Z,30.90
2018-12-19T03:33:43.151Z,30.80
2018-12-19T03:34:43.144Z,30.90
2018-12-19T03:35:43.130Z,29.90
2018-12-19T03:36:43.130Z,30.40
2018-12-19T03:37:43.123Z,29.20
2018-12-19T03:38:43.098Z,28.80
2018-12-19T03:39:50.003Z,29.60
2018-12-19T03:40:44.077Z,29.70
2018-12-19T03:41:43.075Z,30.00
2018-12-19T03:42:43.068Z,31.00
2018-12-19T03:43:43.045Z,29.60
2018-12-19T03:44:43.036Z,29.00
2018-12-19T03:45:43.028Z,29.80
2018-12-19T03:46:43.017Z,28.20
2018-12-19T03:47:43.016Z,29.80
2018-12-19T03:48:42.999Z,30.30
2018-12-19T03:49:42.983Z,29.30
2018-12-19T03:50:42.974Z,29.00
2018-12-19T03:51:42.961Z,29.80
2018-12-19T03:52:42.963Z,29.40
2018-12-19T03:53:42.942Z,28.90
2018-12-19T03:54:42.934Z,28.40
2018-12-19T03:55:42.920Z,28.50
2018-12-19T03:56:42.909Z,29.10
2018-12-19T03:57:42.912Z,28.10
2018-12-19T03:58:42.921Z,28.90
2018-12-19T03:59:42.880Z,28.00
2018-12-19T04:00:42.871Z,27.10
2018-12-19T04:01:42.861Z,27.80
2018-12-19T04:02:42.860Z,29.20
2018-12-19T04:03:42.837Z,28.60
2018-12-19T04:04:42.839Z,28.90
2018-12-19T04:05:42.820Z,30.80
2018-12-19T04:06:42.814Z,28.60
2018-12-19T04:07:42.809Z,28.40
2018-12-19T04:08:42.791Z,27.80
2018-12-19T04:09:42.776Z,27.30
2018-12-19T04:10:42.776Z,26.90
2018-12-19T04:11:42.757Z,27.30
2018-12-19T04:12:42.801Z,27.40
2018-12-19T04:13:42.734Z,27.50
2018-12-19T04:14:42.726Z,27.70
2018-12-19T04:15:42.713Z,26.70
2018-12-19T04:16:42.711Z,26.80
2018-12-19T04:17:42.693Z,27.50
2018-12-19T04:18:42.698Z,27.20
2018-12-19T04:19:42.677Z,27.20
2018-12-19T04:20:42.666Z,28.70
2018-12-19T04:21:42.652Z,27.10
2018-12-19T04:22:42.649Z,27.40
2018-12-19T04:23:42.652Z,28.00
2018-12-19T04:24:42.634Z,27.10
2018-12-19T04:25:42.609Z,27.60
2018-12-19T04:26:42.601Z,27.70
2018-12-19T04:27:42.603Z,27.30
2018-12-19T04:28:42.589Z,28.20
2018-12-19T04:29:42.566Z,28.10
2018-12-19T04:30:42.593Z,28.80
2018-12-19T04:31:42.552Z,27.50
2018-12-19T04:32:42.538Z,28.70
2018-12-19T04:33:42.562Z,29.10
2018-12-19T04:34:42.516Z,28.50
2018-12-19T04:35:42.513Z,27.90
2018-12-19T04:36:42.498Z,28.40
2018-12-19T04:37:42.484Z,28.70
2018-12-19T04:38:42.492Z,28.20
2018-12-19T04:39:42.468Z,28.90
2018-12-19T04:40:42.452Z,30.10
2018-12-19T04:41:42.449Z,29.50
2018-12-19T04:42:42.441Z,28.90
2018-12-19T04:43:42.438Z,28.60
2018-12-19T04:44:42.413Z,29.10
2018-12-19T04:45:42.404Z,29.90
2018-12-19T04:46:42.391Z,29.50
2018-12-19T04:47:42.392Z,29.60
2018-12-19T04:48:42.384Z,30.00
2018-12-19T04:49:42.360Z,28.70
2018-12-19T04:50:42.349Z,28.40
2018-12-19T04:51:42.340Z,29.40
2018-12-19T04:52:42.333Z,29.60
2018-12-19T04:53:42.333Z,29.00
2018-12-19T04:54:42.308Z,29.40
2018-12-19T04:55:42.295Z,28.70
2018-12-19T04:56:42.287Z,28.50
2018-12-19T04:57:42.277Z,29.10
2018-12-19T04:58:42.276Z,28.30
2018-12-19T04:59:42.273Z,28.00
2018-12-19T05:00:42.247Z,27.00
2018-12-19T05:01:42.238Z,27.70
2018-12-19T05:02:42.225Z,28.30
2018-12-19T05:03:42.246Z,27.60
2018-12-19T05:04:42.208Z,26.70
2018-12-19T05:05:42.204Z,27.20
2018-12-19T05:06:42.182Z,27.00
2018-12-19T05:07:42.173Z,27.90
2018-12-19T05:08:42.164Z,27.80
2018-12-19T05:09:42.169Z,27.80
2018-12-19T05:10:42.145Z,26.60
2018-12-19T05:11:42.134Z,26.30
2018-12-19T05:12:42.132Z,27.80
2018-12-19T05:13:42.108Z,26.30
2018-12-19T05:14:42.114Z,26.90
2018-12-19T05:15:42.087Z,26.80
2018-12-19T05:16:42.079Z,27.10
2018-12-19T05:17:42.073Z,26.10
2018-12-19T05:18:42.059Z,26.70
2018-12-19T05:19:42.060Z,25.40
2018-12-19T05:20:42.035Z,25.50
2018-12-19T05:21:42.025Z,26.20
2018-12-19T05:22:42.013Z,26.90
2018-12-19T05:23:42.004Z,26.30
2018-12-19T05:24:42.024Z,26.50
2018-12-19T05:25:41.988Z,27.10
2018-12-19T05:26:41.973Z,25.20
2018-12-19T05:27:41.969Z,26.20
2018-12-19T05:28:41.953Z,26.20
2018-12-19T05:29:41.958Z,25.30
2018-12-19T05:30:41.936Z,25.30
2018-12-19T05:31:41.921Z,26.30
2018-12-19T05:32:41.912Z,25.40
2018-12-19T05:33:41.899Z,25.50
2018-12-19T05:34:41.902Z,25.90
2018-12-19T05:35:41.880Z,25.40
2018-12-19T05:36:41.955Z,25.30
2018-12-19T05:37:41.859Z,25.70
2018-12-19T05:38:41.848Z,26.00
2018-12-19T05:39:41.860Z,25.70
2018-12-19T05:40:41.831Z,25.30
2018-12-19T05:41:41.817Z,25.00
2018-12-19T05:42:41.816Z,25.40
2018-12-19T05:43:41.798Z,26.60
2018-12-19T05:44:41.815Z,26.90
2018-12-19T05:45:41.777Z,24.80
2018-12-19T05:46:41.772Z,25.40
2018-12-19T05:47:41.754Z,25.80
2018-12-19T05:48:41.749Z,24.70
2018-12-19T05:49:41.746Z,25.60
2018-12-19T05:50:41.738Z,25.70
2018-12-19T05:51:41.715Z,25.60
2018-12-19T05:52:41.711Z,24.80
2018-12-19T05:53:41.696Z,25.70
2018-12-19T05:54:41.686Z,26.20
2018-12-19T05:55:41.692Z,27.00
2018-12-19T05:56:41.663Z,25.50
2018-12-19T05:57:41.652Z,25.00
2018-12-19T05:58:41.642Z,25.00
2018-12-19T05:59:41.631Z,24.70
2018-12-19T06:00:41.633Z,25.10
2018-12-19T06:01:41.610Z,24.50
2018-12-19T06:02:41.629Z,25.30
2018-12-19T06:03:41.589Z,24.70
2018-12-19T06:04:41.579Z,23.90
2018-12-19T06:05:41.594Z,24.40
2018-12-19T06:06:41.574Z,25.30
2018-12-19T06:07:41.544Z,24.80
2018-12-19T06:08:41.536Z,24.40
2018-12-19T06:09:41.526Z,24.00
2018-12-19T06:10:41.528Z,24.10
2018-12-19T06:11:41.569Z,24.10
2018-12-19T06:12:41.495Z,24.20
2018-12-19T06:13:41.541Z,24.60
2018-12-19T06:14:41.476Z,24.60
2018-12-19T06:15:41.474Z,24.00
2018-12-19T06:16:41.458Z,23.70
2018-12-19T06:17:41.444Z,23.60
2018-12-19T06:18:41.443Z,23.50
2018-12-19T06:19:41.471Z,25.20
2018-12-19T06:20:41.422Z,23.90
2018-12-19T06:21:41.412Z,23.60
2018-12-19T06:22:41.391Z,23.70
2018-12-19T06:23:41.380Z,24.10
2018-12-19T06:24:41.368Z,24.00
2018-12-19T06:25:41.388Z,23.50
2018-12-19T06:26:41.358Z,23.90
2018-12-19T06:27:41.338Z,24.20
2018-12-19T06:28:41.326Z,25.10
2018-12-19T06:29:41.317Z,24.30
2018-12-19T06:30:41.307Z,24.10
2018-12-19T06:31:41.312Z,24.10
2018-12-19T06:32:41.285Z,23.00
2018-12-19T06:33:41.278Z,23.40
2018-12-19T06:34:41.265Z,24.00
2018-12-19T06:35:41.254Z,24.40
2018-12-19T06:36:41.254Z,24.20
2018-12-19T06:37:41.231Z,23.70
2018-12-19T06:38:41.226Z,23.20
2018-12-19T06:39:41.219Z,23.40
2018-12-19T06:40:41.203Z,23.10
2018-12-19T06:41:41.211Z,24.30
2018-12-19T06:42:41.182Z,24.30
2018-12-19T06:43:41.201Z,23.50
2018-12-19T06:44:41.161Z,24.20
2018-12-19T06:45:41.152Z,24.10
2018-12-19T06:46:41.150Z,23.70
2018-12-19T06:47:41.130Z,25.10
2018-12-19T06:48:41.123Z,24.40
2018-12-19T06:49:41.111Z,23.60
2018-12-19T06:50:41.102Z,23.50
2018-12-19T06:51:41.097Z,24.30
2018-12-19T06:52:41.076Z,24.00
2018-12-19T06:53:41.066Z,24.20
2018-12-19T06:54:41.056Z,24.10
2018-12-19T06:55:41.046Z,23.80
2018-12-19T06:56:41.049Z,24.30
2018-12-19T06:57:41.027Z,24.60
2018-12-19T06:58:41.015Z,23.40
2018-12-19T06:59:41.018Z,23.30
2018-12-19T07:00:40.993Z,24.40
2018-12-19T07:01:40.982Z,24.90
2018-12-19T07:02:40.994Z,25.40
2018-12-19T07:03:40.973Z,24.80
2018-12-19T07:04:40.953Z,25.00
2018-12-19T07:05:40.945Z,23.90
2018-12-19T07:06:40.934Z,24.70
2018-12-19T07:07:40.935Z,24.90
2018-12-19T07:08:41.548Z,25.00
2018-12-19T07:09:40.899Z,25.10
2018-12-19T07:10:40.893Z,24.30
2018-12-19T07:11:40.880Z,24.60
2018-12-19T07:12:40.886Z,24.80
2018-12-19T07:13:40.857Z,24.00
2018-12-19T07:14:40.851Z,25.10
2018-12-19T07:15:40.839Z,24.60
2018-12-19T07:16:43.631Z,24.00
2018-12-19T07:17:40.833Z,25.00
2018-12-19T07:18:40.805Z,24.00
2018-12-19T07:19:40.801Z,24.30
2018-12-19T07:20:40.794Z,24.50
2018-12-19T07:21:40.831Z,23.50
2018-12-19T07:22:40.781Z,23.80
2018-12-19T07:23:40.810Z,24.00
2018-12-19T07:24:40.747Z,24.90
2018-12-19T07:25:40.736Z,24.40
2018-12-19T07:26:40.743Z,24.20
2018-12-19T07:27:40.737Z,23.70
2018-12-19T07:28:40.702Z,24.10
2018-12-19T07:29:40.709Z,24.40
2018-12-19T07:30:40.685Z,25.80
2018-12-19T07:31:40.671Z,23.90
2018-12-19T07:32:40.680Z,23.80
2018-12-19T07:33:40.658Z,24.90
2018-12-19T07:34:44.221Z,23.90
2018-12-19T07:35:40.630Z,24.30
2018-12-19T07:36:40.619Z,23.40
2018-12-19T07:37:40.623Z,23.20
2018-12-19T07:38:40.601Z,24.30
2018-12-19T07:39:40.587Z,23.80
2018-12-19T07:40:45.562Z,22.80
2018-12-19T07:41:41.567Z,22.90
2018-12-19T07:42:40.569Z,23.60
2018-12-19T07:43:40.549Z,23.30
2018-12-19T07:44:40.536Z,24.30
2018-12-19T07:45:40.533Z,24.00
2018-12-19T07:46:40.515Z,24.80
2018-12-19T07:47:40.516Z,23.30
2018-12-19T07:48:40.495Z,23.80
2018-12-19T07:49:40.483Z,23.60
2018-12-19T07:50:40.472Z,22.70
2018-12-19T07:51:40.462Z,23.10
2018-12-19T07:52:40.470Z,23.50
2018-12-19T07:53:40.448Z,24.60
2018-12-19T07:54:40.430Z,23.40
2018-12-19T07:55:40.432Z,23.10
2018-12-19T07:56:40.412Z,23.10
2018-12-19T07:57:40.412Z,23.70
2018-12-19T07:58:40.391Z,23.00
2018-12-19T07:59:40.382Z,23.40
2018-12-19T08:00:40.368Z,22.40
2018-12-19T08:01:40.357Z,22.90
2018-12-19T08:02:40.360Z,22.90
2018-12-19T08:03:40.338Z,23.00
2018-12-19T08:04:40.332Z,22.50
2018-12-19T08:05:40.329Z,22.70
2018-12-19T08:06:40.306Z,22.50
2018-12-19T08:07:40.341Z,22.80
2018-12-19T08:08:40.300Z,22.60
2018-12-19T08:09:40.278Z,22.80
2018-12-19T08:10:40.264Z,23.40
2018-12-19T08:11:40.253Z,22.10
2018-12-19T08:12:40.259Z,22.20
2018-12-19T08:13:40.246Z,21.50
2018-12-19T08:14:40.245Z,22.30
2018-12-19T08:15:40.213Z,22.40
2018-12-19T08:16:40.203Z,22.30
2018-12-19T08:17:40.190Z,22.00
2018-12-19T08:18:40.201Z,22.00
2018-12-19T08:19:40.174Z,22.50
2018-12-19T08:20:40.895Z,21.90
2018-12-19T08:21:40.152Z,22.40
2018-12-19T08:22:40.146Z,22.30
2018-12-19T08:23:40.139Z,22.20
2018-12-19T08:24:40.115Z,22.80
2018-12-19T08:25:40.109Z,22.30
2018-12-19T08:26:40.094Z,21.70
2018-12-19T08:27:40.085Z,21.60
2018-12-19T08:28:40.096Z,21.70
2018-12-19T08:29:40.065Z,22.10
2018-12-19T08:30:40.052Z,21.80
2018-12-19T08:31:40.043Z,22.00
2018-12-19T08:32:40.037Z,21.90
2018-12-19T08:33:40.041Z,22.30
2018-12-19T08:34:40.010Z,22.00
2018-12-19T08:35:40.002Z,21.10
2018-12-19T08:36:39.988Z,21.20
2018-12-19T08:37:40.080Z,21.90
2018-12-19T08:38:39.984Z,21.50
2018-12-19T08:39:39.962Z,21.80
2018-12-19T08:40:39.945Z,21.50
2018-12-19T08:41:39.936Z,21.40
2018-12-19T08:42:39.924Z,22.10
2018-12-19T08:43:39.951Z,21.20
2018-12-19T08:44:39.943Z,21.50
2018-12-19T08:45:39.913Z,21.90
2018-12-19T08:46:39.885Z,22.20
2018-12-19T08:47:39.933Z,21.10
2018-12-19T08:48:39.877Z,21.90
2018-12-19T08:49:39.851Z,21.10
2018-12-19T08:50:39.849Z,20.50
2018-12-19T08:51:39.833Z,21.80
2018-12-19T08:52:39.819Z,22.60
2018-12-19T08:53:39.837Z,22.20
2018-12-19T08:54:39.800Z,22.80
2018-12-19T08:55:39.787Z,22.00
2018-12-19T08:56:39.821Z,22.10
2018-12-19T08:57:39.770Z,21.90
2018-12-19T08:58:39.768Z,21.80
2018-12-19T08:59:39.745Z,21.70
2018-12-19T09:00:39.736Z,21.50
2018-12-19T09:01:39.727Z,21.50
2018-12-19T09:02:39.737Z,21.10
2018-12-19T09:03:39.953Z,22.20
2018-12-19T09:04:39.693Z,21.40
2018-12-19T09:05:39.682Z,21.00
2018-12-19T09:06:39.673Z,21.10
2018-12-19T09:07:39.661Z,20.90
2018-12-19T09:08:39.961Z,21.50
2018-12-19T09:09:39.713Z,20.80
2018-12-19T09:10:39.630Z,21.30
2018-12-19T09:11:39.626Z,20.90
2018-12-19T09:12:39.653Z,20.20
2018-12-19T09:13:39.598Z,21.10
2018-12-19T09:14:39.597Z,20.90
2018-12-19T09:15:39.576Z,20.40
2018-12-19T09:16:39.564Z,21.80
2018-12-19T09:17:39.557Z,20.80
2018-12-19T09:18:39.617Z,21.50
2018-12-19T09:19:39.707Z,21.40
2018-12-19T09:20:39.531Z,21.70
2018-12-19T09:21:39.533Z,21.10
2018-12-19T09:22:39.506Z,20.40
2018-12-19T09:23:39.495Z,20.70
2018-12-19T09:24:39.491Z,20.50
2018-12-19T09:25:39.472Z,20.60
2018-12-19T09:26:39.458Z,20.80
2018-12-19T09:27:39.450Z,21.10
2018-12-19T09:28:39.435Z,20.50
2018-12-19T09:29:39.444Z,20.60
2018-12-19T09:30:39.434Z,20.40
2018-12-19T09:31:39.405Z,21.70
2018-12-19T09:32:39.394Z,21.40
2018-12-19T09:33:39.408Z,21.10
2018-12-19T09:34:39.384Z,20.60
2018-12-19T09:35:39.366Z,20.40
2018-12-19T09:36:39.362Z,20.30
2018-12-19T09:37:39.340Z,21.50
2018-12-19T09:38:40.931Z,21.00
2018-12-19T09:39:39.337Z,20.80
2018-12-19T09:40:39.309Z,20.90
2018-12-19T09:41:39.301Z,20.70
2018-12-19T09:42:39.288Z,20.80
2018-12-19T09:43:39.284Z,21.30
2018-12-19T09:44:39.287Z,21.80
2018-12-19T09:45:39.262Z,20.80
2018-12-19T09:46:39.247Z,21.60
2018-12-19T09:47:39.236Z,21.20
2018-12-19T09:48:39.228Z,21.00
2018-12-19T09:49:39.244Z,20.90
2018-12-19T09:50:39.201Z,21.20
2018-12-19T09:51:39.192Z,21.90
2018-12-19T09:52:39.233Z,21.10
2018-12-19T09:53:39.193Z,21.10
2018-12-19T09:54:39.159Z,21.60
2018-12-19T09:55:39.161Z,20.70
2018-12-19T09:56:39.143Z,21.00
2018-12-19T09:57:39.132Z,21.00
2018-12-19T09:58:39.121Z,21.20
2018-12-19T09:59:39.111Z,20.90
2018-12-19T10:00:39.108Z,21.20
2018-12-19T10:01:39.085Z,21.30
2018-12-19T10:02:39.863Z,20.70
2018-12-19T10:03:39.065Z,21.00
2018-12-19T10:04:39.055Z,21.70
2018-12-19T10:05:39.059Z,20.30
2018-12-19T10:06:39.035Z,20.50
2018-12-19T10:07:39.025Z,20.70
2018-12-19T10:08:39.021Z,20.00
2018-12-19T10:09:39.003Z,21.20
2018-12-19T10:10:39.003Z,20.60
2018-12-19T10:11:38.980Z,20.40
2018-12-19T10:12:38.985Z,20.80
2018-12-19T10:13:38.959Z,20.50
2018-12-19T10:14:38.949Z,20.10
2018-12-19T10:15:38.951Z,20.60
2018-12-19T10:16:38.928Z,20.70
2018-12-19T10:17:40.978Z,20.00
2018-12-19T10:18:38.917Z,20.30
2018-12-19T10:19:38.896Z,20.90
2018-12-19T10:20:38.898Z,20.20
2018-12-19T10:21:38.877Z,19.60
2018-12-19T10:22:38.878Z,20.70
2018-12-19T10:23:38.853Z,20.60
2018-12-19T10:24:38.854Z,19.40
2018-12-19T10:25:38.848Z,19.80
2018-12-19T10:26:38.821Z,19.70
2018-12-19T10:27:38.809Z,20.20
2018-12-19T10:28:38.803Z,20.20
2018-12-19T10:29:38.796Z,20.40
2018-12-19T10:30:38.789Z,20.80
2018-12-19T10:31:38.771Z,19.70
2018-12-19T10:32:38.760Z,20.40
2018-12-19T10:33:38.758Z,19.50
2018-12-19T10:34:38.736Z,20.10
2018-12-19T10:35:38.737Z,20.10
2018-12-19T10:36:38.750Z,21.10
2018-12-19T10:37:38.706Z,20.10
2018-12-19T10:38:38.724Z,20.30
2018-12-19T10:39:38.684Z,19.90
2018-12-19T10:40:38.683Z,20.70
2018-12-19T10:41:38.666Z,19.40
2018-12-19T10:42:38.653Z,19.70
2018-12-19T10:43:38.647Z,19.60
2018-12-19T10:44:38.637Z,20.20
2018-12-19T10:45:38.656Z,20.60
2018-12-19T10:46:38.619Z,20.40
2018-12-19T10:47:38.608Z,20.50
2018-12-19T10:48:38.590Z,21.40
2018-12-19T10:49:38.584Z,19.80
2018-12-19T10:50:38.573Z,20.00
2018-12-19T10:51:38.576Z,20.40
2018-12-19T10:52:38.546Z,20.60
2018-12-19T10:53:38.544Z,19.80
2018-12-19T10:54:38.534Z,19.90
2018-12-19T10:55:38.516Z,20.20
2018-12-19T10:56:38.527Z,20.80
2018-12-19T10:57:38.511Z,19.90
2018-12-19T10:58:38.486Z,20.00
2018-12-19T10:59:38.476Z,20.00
2018-12-19T11:00:38.465Z,19.60
2018-12-19T11:01:38.466Z,19.90
2018-12-19T11:02:38.444Z,20.30
2018-12-19T11:03:38.432Z,19.80
2018-12-19T11:04:38.420Z,19.60
2018-12-19T11:05:38.429Z,20.90
2018-12-19T11:06:38.422Z,19.70
2018-12-19T11:07:38.388Z,20.50
2018-12-19T11:08:38.414Z,20.10
2018-12-19T11:09:38.367Z,20.70
2018-12-19T11:10:38.356Z,19.50
2018-12-19T11:11:38.362Z,20.20
2018-12-19T11:12:38.336Z,19.80
2018-12-19T11:13:38.333Z,19.50
2018-12-19T11:14:38.315Z,19.20
2018-12-19T11:15:38.303Z,19.30
2018-12-19T11:16:38.304Z,19.50
2018-12-19T11:17:38.284Z,19.40
2018-12-19T11:18:38.276Z,19.80
2018-12-19T11:19:38.272Z,19.60
2018-12-19T11:20:38.251Z,18.90
2018-12-19T11:21:38.261Z,19.10
2018-12-19T11:22:38.233Z,19.20
2018-12-19T11:23:38.223Z,18.80
2018-12-19T11:24:38.209Z,19.90
2018-12-19T11:25:38.199Z,19.80
2018-12-19T11:26:38.198Z,19.60
2018-12-19T11:27:38.179Z,19.30
2018-12-19T11:28:38.168Z,19.80
2018-12-19T11:29:38.158Z,19.70
2018-12-19T11:30:38.146Z,19.50
2018-12-19T11:31:38.151Z,19.50
2018-12-19T11:32:38.136Z,19.50
2018-12-19T11:33:38.117Z,18.60
2018-12-19T11:34:38.106Z,18.90
2018-12-19T11:35:38.095Z,19.40
2018-12-19T11:36:38.095Z,19.30
2018-12-19T11:37:38.073Z,19.70
2018-12-19T11:38:38.071Z,20.40
2018-12-19T11:39:38.054Z,19.30
2018-12-19T11:40:38.045Z,19.10
2018-12-19T11:41:39.113Z,19.20
2018-12-19T11:42:38.021Z,19.30
2018-12-19T11:43:38.012Z,19.10
2018-12-19T11:44:38.000Z,19.70
2018-12-19T11:45:37.989Z,18.80
2018-12-19T11:46:37.990Z,19.20
2018-12-19T11:47:37.966Z,19.00
2018-12-19T11:48:37.956Z,19.60
2018-12-19T11:49:37.959Z,19.90
2018-12-19T11:50:37.939Z,20.10
2018-12-19T11:51:37.968Z,19.50
2018-12-19T11:52:37.914Z,19.70
2018-12-19T11:53:37.909Z,20.00
2018-12-19T11:54:37.898Z,19.00
2018-12-19T11:55:37.884Z,18.70
2018-12-19T11:56:37.915Z,18.60
2018-12-19T11:57:37.863Z,18.30
2018-12-19T11:58:37.859Z,18.80
2018-12-19T11:59:37.849Z,18.80
2018-12-19T12:00:37.907Z,26.30
2018-12-19T12:01:41.331Z,21.90
2018-12-19T12:02:37.821Z,19.40
2018-12-19T12:03:37.800Z,18.70
2018-12-19T12:04:37.800Z,19.30
2018-12-19T12:05:37.792Z,19.80
2018-12-19T12:06:37.783Z,19.10
2018-12-19T12:07:37.771Z,18.90
2018-12-19T12:08:37.750Z,19.10
2018-12-19T12:09:37.740Z,18.50
2018-12-19T12:10:37.730Z,19.20
2018-12-19T12:11:37.715Z,18.80
2018-12-19T12:12:37.716Z,18.70
2018-12-19T12:13:37.697Z,18.70
2018-12-19T12:14:37.682Z,18.20
2018-12-19T12:15:37.673Z,18.90
2018-12-19T12:16:37.663Z,19.60
2018-12-19T12:17:37.663Z,19.30
2018-12-19T12:18:37.644Z,19.10
2018-12-19T12:19:37.630Z,19.00
2018-12-19T12:20:37.632Z,18.90
2018-12-19T12:21:37.612Z,18.90
2018-12-19T12:22:37.613Z,19.40
2018-12-19T12:23:37.591Z,20.70
2018-12-19T12:24:37.579Z,19.30
2018-12-19T12:25:37.568Z,18.40
2018-12-19T12:26:37.556Z,19.20
2018-12-19T12:27:37.570Z,19.70
2018-12-19T12:28:37.546Z,19.20
2018-12-19T12:29:37.526Z,19.10
2018-12-19T12:30:37.514Z,18.70
2018-12-19T12:31:37.513Z,20.10
2018-12-19T12:32:37.512Z,19.70
2018-12-19T12:33:37.486Z,18.60
2018-12-19T12:34:37.473Z,18.80
2018-12-19T12:35:37.463Z,18.80
2018-12-19T12:36:37.453Z,19.10
2018-12-19T12:37:37.475Z,19.60
2018-12-19T12:38:37.433Z,18.90
2018-12-19T12:39:37.424Z,18.30
2018-12-19T12:40:37.412Z,18.40
2018-12-19T12:41:37.411Z,19.10
2018-12-19T12:42:37.405Z,18.60
2018-12-19T12:43:37.379Z,18.30
2018-12-19T12:44:37.369Z,18.70
2018-12-19T12:45:37.358Z,18.30
2018-12-19T12:46:37.348Z,18.70
2018-12-19T12:47:37.354Z,18.90
2018-12-19T12:48:37.329Z,19.00
2018-12-19T12:49:37.317Z,18.90
2018-12-19T12:50:37.390Z,19.50
2018-12-19T12:51:37.302Z,18.40
2018-12-19T12:52:37.337Z,18.40